Time;durP1;ratioP1;P1;durP2;ratioP2;P2;SDS_P1;SDS_P2;PMS_P1;PMS_P2;Temp;Humidity;BMP_temperature;BMP_pressure;BME280_temperature;BME280_humidity;BME280_pressure;Samples;Min_cycle;Max_cycle;Signal;HPM_P1;HPM_P2
2021/04/04 00:00:12;;;;;;;1.53;1.30;;;5.80;91.50;;;;;;5029482;28;20549;-75
2021/04/04 00:02:41;;;;;;;1.50;1.10;;;5.80;91.20;;;;;;5022913;28;20483;-76
2021/04/04 00:05:09;;;;;;;1.53;1.30;;;5.80;91.20;;;;;;5030691;28;20463;-77
2021/04/04 00:07:36;;;;;;;1.60;1.30;;;5.80;91.20;;;;;;5011334;28;20493;-76
2021/04/04 00:10:04;;;;;;;1.60;1.30;;;5.80;91.20;;;;;;5032583;28;20550;-77
2021/04/04 00:12:30;;;;;;;1.60;1.30;;;5.70;92.00;;;;;;5017760;28;20475;-77
2021/04/04 00:14:57;;;;;;;1.50;1.30;;;5.60;91.90;;;;;;5027901;28;20471;-77
2021/04/04 00:17:24;;;;;;;1.60;1.30;;;5.60;91.60;;;;;;5019302;28;20486;-77
2021/04/04 00:19:50;;;;;;;1.50;1.27;;;5.60;92.00;;;;;;5028853;28;20486;-77
2021/04/04 00:22:16;;;;;;;1.50;1.33;;;5.60;91.70;;;;;;5012403;28;20491;-77
2021/04/04 00:24:43;;;;;;;1.50;1.30;;;5.50;91.70;;;;;;5020418;28;20477;-77
2021/04/04 00:27:09;;;;;;;1.50;1.30;;;5.50;91.60;;;;;;5019162;28;20571;-77
2021/04/04 00:29:36;;;;;;;1.57;1.30;;;5.50;91.60;;;;;;5030568;28;21024;-77
2021/04/04 00:32:02;;;;;;;1.60;1.33;;;5.50;92.00;;;;;;5013653;28;20480;-76
2021/04/04 00:34:29;;;;;;;1.60;1.40;;;5.50;92.10;;;;;;5022725;28;20958;-77
2021/04/04 00:36:55;;;;;;;1.50;1.30;;;5.40;92.20;;;;;;5022181;28;20490;-77
2021/04/04 00:39:22;;;;;;;1.57;1.40;;;5.40;91.90;;;;;;5032235;28;20484;-77
2021/04/04 00:41:49;;;;;;;1.53;1.30;;;5.40;91.90;;;;;;5014808;28;20479;-77
2021/04/04 00:44:15;;;;;;;1.60;1.30;;;5.40;92.30;;;;;;5024347;28;20451;-78
2021/04/04 00:46:41;;;;;;;1.60;1.40;;;5.40;92.30;;;;;;5014883;28;20520;-78
2021/04/04 00:49:08;;;;;;;1.57;1.30;;;5.30;92.10;;;;;;5020171;28;20484;-76
2021/04/04 00:51:35;;;;;;;1.50;1.30;;;5.30;92.20;;;;;;5008914;28;20483;-77
2021/04/04 00:54:03;;;;;;;1.60;1.40;;;5.30;92.60;;;;;;5021666;28;21265;-76
2021/04/04 00:56:29;;;;;;;1.57;1.33;;;5.40;92.60;;;;;;5012544;28;20963;-77
2021/04/04 00:58:56;;;;;;;1.57;1.30;;;5.40;92.50;;;;;;5028945;28;20526;-78
2021/04/04 01:01:23;;;;;;;1.60;1.30;;;5.40;92.80;;;;;;5012319;28;20503;-77
2021/04/04 01:03:49;;;;;;;1.50;1.30;;;5.40;92.90;;;;;;5028315;28;20970;-77
2021/04/04 01:06:16;;;;;;;1.50;1.30;;;5.40;92.80;;;;;;5018479;28;20471;-77
2021/04/04 01:08:43;;;;;;;1.60;1.40;;;5.40;92.90;;;;;;5016355;28;20492;-76
2021/04/04 01:11:11;;;;;;;1.60;1.40;;;5.40;93.00;;;;;;5015728;28;20486;-78
2021/04/04 01:13:48;;;;;;;1.60;1.40;;;5.40;92.70;;;;;;5017151;28;20459;-76
2021/04/04 01:16:19;;;;;;;1.60;1.40;;;5.40;92.80;;;;;;5013822;28;20548;-77
2021/04/04 01:18:54;;;;;;;1.60;1.40;;;5.40;92.80;;;;;;5014364;28;20552;-77
2021/04/04 01:21:24;;;;;;;1.53;1.30;;;5.40;92.70;;;;;;5005733;28;20472;-78
2021/04/04 01:24:27;;;;;;;1.50;1.30;;;5.40;92.80;;;;;;5023830;28;20459;-76
2021/04/04 01:27:03;;;;;;;1.60;1.50;;;5.40;92.70;;;;;;5015608;28;20906;-77
2021/04/04 01:29:33;;;;;;;1.50;1.30;;;5.40;92.60;;;;;;5009776;28;20982;-77
2021/04/04 01:32:00;;;;;;;1.53;1.30;;;5.40;92.50;;;;;;5013135;28;20479;-76
2021/04/04 01:34:29;;;;;;;1.57;1.30;;;5.40;92.20;;;;;;5023056;28;20471;-77
2021/04/04 01:36:59;;;;;;;1.57;1.30;;;5.40;92.00;;;;;;5014883;28;20476;-77
2021/04/04 01:39:29;;;;;;;1.53;1.30;;;5.40;92.10;;;;;;5027174;28;20962;-77
2021/04/04 01:41:58;;;;;;;1.50;1.30;;;5.40;91.80;;;;;;5014752;28;20570;-77
2021/04/04 01:44:25;;;;;;;1.53;1.30;;;5.40;91.50;;;;;;5029864;28;20478;-76
2021/04/04 01:46:56;;;;;;;1.50;1.30;;;5.30;91.50;;;;;;5014484;28;20901;-75
2021/04/04 01:49:24;;;;;;;1.60;1.40;;;5.30;91.40;;;;;;5026925;28;20514;-77
2021/04/04 01:51:51;;;;;;;1.57;1.40;;;5.30;91.30;;;;;;5015208;28;20475;-78
2021/04/04 01:54:19;;;;;;;1.57;1.40;;;5.30;91.80;;;;;;5027554;28;20490;-77
2021/04/04 01:56:47;;;;;;;1.50;1.30;;;5.20;92.20;;;;;;5014359;28;20479;-77
2021/04/04 01:59:15;;;;;;;1.60;1.40;;;5.20;92.80;;;;;;5025692;28;20886;-75
2021/04/04 02:01:45;;;;;;;1.60;1.40;;;5.20;93.30;;;;;;5012545;28;20497;-77
2021/04/04 02:04:13;;;;;;;1.50;1.30;;;5.20;93.60;;;;;;5044544;22;20502;-77
2021/04/04 02:06:42;;;;;;;1.50;1.30;;;5.30;93.80;;;;;;5016609;28;20483;-77
2021/04/04 02:09:11;;;;;;;1.50;1.40;;;5.30;93.90;;;;;;5007393;28;20511;-76
2021/04/04 02:11:39;;;;;;;1.53;1.40;;;5.40;93.60;;;;;;5003535;28;20526;-76
2021/04/04 02:14:07;;;;;;;1.60;1.50;;;5.40;93.40;;;;;;5009084;22;20483;-75
2021/04/04 02:16:36;;;;;;;1.50;1.30;;;5.50;93.50;;;;;;5017038;28;20487;-77
2021/04/04 02:19:03;;;;;;;1.57;1.30;;;5.50;93.30;;;;;;5011055;28;20571;-77
2021/04/04 02:21:34;;;;;;;1.70;1.60;;;5.50;93.10;;;;;;4998449;28;20489;-76
2021/04/04 02:24:02;;;;;;;1.57;1.30;;;5.50;92.80;;;;;;5031899;22;20500;-77
2021/04/04 02:26:30;;;;;;;1.60;1.43;;;5.60;92.70;;;;;;5008591;28;20497;-77
2021/04/04 02:28:56;;;;;;;1.57;1.30;;;5.60;92.40;;;;;;5015464;28;20493;-76
2021/04/04 02:31:23;;;;;;;1.50;1.30;;;5.60;92.80;;;;;;4984911;28;20505;-76
2021/04/04 02:33:55;;;;;;;1.50;1.30;;;5.50;92.20;;;;;;5015370;28;20468;-76
2021/04/04 02:36:25;;;;;;;1.60;1.30;;;5.50;92.30;;;;;;4985525;28;20483;-75
2021/04/04 02:39:02;;;;;;;1.60;1.40;;;5.60;92.60;;;;;;5008591;28;20477;-76
2021/04/04 02:41:30;;;;;;;1.60;1.30;;;5.60;92.70;;;;;;4986337;28;21004;-76
2021/04/04 02:43:59;;;;;;;1.60;1.30;;;5.50;92.40;;;;;;5005396;28;20558;-77
2021/04/04 02:46:27;;;;;;;1.57;1.30;;;5.50;92.60;;;;;;4979289;28;20534;-76
2021/04/04 02:48:57;;;;;;;1.57;1.30;;;5.50;92.40;;;;;;5013863;28;20526;-76
2021/04/04 02:51:30;;;;;;;1.50;1.30;;;5.50;92.60;;;;;;4991744;28;20584;-76
2021/04/04 02:54:01;;;;;;;1.53;1.30;;;5.50;92.50;;;;;;5014485;22;20494;-77
2021/04/04 02:56:29;;;;;;;1.50;1.30;;;5.50;92.70;;;;;;4991460;28;20479;-77
2021/04/04 02:58:58;;;;;;;1.57;1.30;;;5.60;92.60;;;;;;5031384;22;20515;-75
2021/04/04 03:01:28;;;;;;;1.50;1.30;;;5.60;92.70;;;;;;4985863;28;20497;-75
2021/04/04 03:03:54;;;;;;;1.53;1.30;;;5.60;92.50;;;;;;4989729;28;20482;-77
2021/04/04 03:06:22;;;;;;;1.57;1.30;;;5.60;92.50;;;;;;4974565;28;20529;-75
2021/04/04 03:08:52;;;;;;;1.57;1.33;;;5.60;92.50;;;;;;4982610;28;20485;-77
2021/04/04 03:11:20;;;;;;;1.60;1.40;;;5.70;92.60;;;;;;4967553;28;20480;-75
2021/04/04 03:13:50;;;;;;;1.53;1.40;;;5.70;92.50;;;;;;4989140;28;20584;-76
2021/04/04 03:16:18;;;;;;;1.53;1.40;;;5.70;93.00;;;;;;4971351;28;21022;-77
2021/04/04 03:18:46;;;;;;;1.50;1.30;;;5.70;92.80;;;;;;4993536;28;20831;-76
2021/04/04 03:21:15;;;;;;;1.50;1.23;;;5.70;92.40;;;;;;4964084;28;20495;-77
2021/04/04 03:23:42;;;;;;;1.50;1.30;;;5.70;92.30;;;;;;4992237;28;20563;-76
2021/04/04 03:26:10;;;;;;;1.60;1.40;;;5.70;92.40;;;;;;4968174;28;20499;-76
2021/04/04 03:28:39;;;;;;;1.57;1.40;;;5.70;92.40;;;;;;4983531;28;20509;-77
2021/04/04 03:31:06;;;;;;;1.57;1.33;;;5.70;92.20;;;;;;4961203;28;20461;-75
2021/04/04 03:33:33;;;;;;;1.53;1.30;;;5.70;92.10;;;;;;4957265;28;20471;-76
2021/04/04 03:36:00;;;;;;;1.50;1.30;;;5.70;92.40;;;;;;4961602;28;20514;-76
2021/04/04 03:38:28;;;;;;;1.50;1.30;;;5.70;92.10;;;;;;4977427;28;21008;-78
2021/04/04 03:40:55;;;;;;;1.60;1.40;;;5.70;92.20;;;;;;4961755;28;20458;-78
2021/04/04 03:43:24;;;;;;;1.57;1.20;;;5.70;92.30;;;;;;4986405;28;20466;-77
2021/04/04 03:45:53;;;;;;;1.50;1.30;;;5.70;92.30;;;;;;4962322;28;20870;-77
2021/04/04 03:48:21;;;;;;;1.50;1.30;;;5.70;92.30;;;;;;4982815;28;20480;-76
2021/04/04 03:50:49;;;;;;;1.60;1.40;;;5.80;91.90;;;;;;4961087;28;20492;-77
2021/04/04 03:53:20;;;;;;;1.50;1.20;;;5.80;92.40;;;;;;4991443;28;20491;-77
2021/04/04 03:55:49;;;;;;;1.50;1.30;;;5.80;92.50;;;;;;4968011;28;20501;-77
2021/04/04 03:58:16;;;;;;;1.50;1.27;;;5.80;92.50;;;;;;4995936;28;20492;-77
2021/04/04 04:00:45;;;;;;;1.60;1.30;;;5.80;92.20;;;;;;4978439;28;20474;-77
2021/04/04 04:03:14;;;;;;;1.50;1.30;;;5.80;92.50;;;;;;4950633;28;20481;-76
2021/04/04 04:05:41;;;;;;;1.53;1.40;;;5.70;92.40;;;;;;4971891;28;20470;-78
2021/04/04 04:08:08;;;;;;;1.60;1.40;;;5.80;92.70;;;;;;4981336;28;20477;-75
2021/04/04 04:10:38;;;;;;;1.53;1.30;;;5.70;92.70;;;;;;4976635;28;20470;-76
2021/04/04 04:13:05;;;;;;;1.60;1.30;;;5.80;92.80;;;;;;4961062;28;20487;-76
2021/04/04 04:15:32;;;;;;;1.50;1.30;;;5.80;92.70;;;;;;4969291;28;20921;-76
2021/04/04 04:18:00;;;;;;;1.50;1.27;;;5.80;92.60;;;;;;4979796;28;20576;-76
2021/04/04 04:20:31;;;;;;;1.57;1.30;;;5.80;92.60;;;;;;4982158;28;20497;-76
2021/04/04 04:22:59;;;;;;;1.53;1.40;;;5.80;92.80;;;;;;4983673;28;20492;-77
2021/04/04 04:25:26;;;;;;;1.60;1.40;;;5.80;92.90;;;;;;4983564;28;20466;-76
2021/04/04 04:27:53;;;;;;;1.53;1.30;;;5.80;92.40;;;;;;4983891;28;20481;-75
2021/04/04 04:30:21;;;;;;;1.50;1.23;;;5.90;92.20;;;;;;4972526;28;20470;-77
2021/04/04 04:32:52;;;;;;;1.60;1.40;;;5.90;92.30;;;;;;4983034;28;20570;-75
2021/04/04 04:35:21;;;;;;;1.50;1.30;;;5.90;93.00;;;;;;5018959;22;20542;-76
2021/04/04 04:37:48;;;;;;;1.50;1.20;;;5.90;92.90;;;;;;5023067;28;20554;-77
2021/04/04 04:40:17;;;;;;;1.57;1.30;;;5.90;92.60;;;;;;5010239;28;20462;-75
2021/04/04 04:42:49;;;;;;;1.50;1.30;;;5.90;92.80;;;;;;5025035;28;20552;-77
2021/04/04 04:45:20;;;;;;;1.53;1.30;;;5.90;92.20;;;;;;5031118;22;20493;-76
2021/04/04 04:47:48;;;;;;;1.50;1.30;;;5.90;92.30;;;;;;5007776;28;20481;-77
2021/04/04 04:50:16;;;;;;;1.53;1.30;;;5.90;92.60;;;;;;5016747;28;20463;-76
2021/04/04 04:52:43;;;;;;;1.60;1.40;;;5.90;92.20;;;;;;5016298;28;20498;-75
2021/04/04 04:55:11;;;;;;;1.50;1.30;;;6.00;92.00;;;;;;5045314;22;20522;-77
2021/04/04 04:57:46;;;;;;;1.57;1.30;;;6.00;92.30;;;;;;5012216;28;20476;-76
2021/04/04 05:00:18;;;;;;;1.53;1.40;;;6.00;92.50;;;;;;5019895;28;20477;-75
2021/04/04 05:02:46;;;;;;;1.53;1.30;;;6.00;92.40;;;;;;5006202;28;20504;-77
2021/04/04 05:05:14;;;;;;;1.57;1.30;;;6.00;92.60;;;;;;5013022;28;20469;-76
2021/04/04 05:07:45;;;;;;;1.53;1.30;;;6.00;92.60;;;;;;5003373;28;20997;-76
2021/04/04 05:10:16;;;;;;;1.50;1.30;;;6.00;92.30;;;;;;5034502;22;20496;-76
2021/04/04 05:12:46;;;;;;;1.53;1.23;;;6.00;92.20;;;;;;5002273;28;20571;-75
2021/04/04 05:15:13;;;;;;;3.10;2.90;;;6.00;93.00;;;;;;5011928;28;20468;-75
2021/04/04 05:17:40;;;;;;;1.57;1.30;;;6.00;92.90;;;;;;4999314;28;20555;-74
2021/04/04 05:20:09;;;;;;;1.50;1.23;;;6.00;93.10;;;;;;5010221;28;20522;-76
2021/04/04 05:22:36;;;;;;;1.53;1.30;;;6.00;93.20;;;;;;4999917;28;20880;-76
2021/04/04 05:25:04;;;;;;;1.53;1.30;;;6.00;93.20;;;;;;5008885;28;20472;-76
2021/04/04 05:27:31;;;;;;;1.50;1.20;;;6.00;93.00;;;;;;4997829;28;20511;-77
2021/04/04 05:29:58;;;;;;;1.50;1.20;;;6.00;92.80;;;;;;5009614;28;20467;-74
2021/04/04 05:32:25;;;;;;;1.53;1.20;;;6.00;92.60;;;;;;4995695;28;20484;-77
2021/04/04 05:34:51;;;;;;;1.50;1.23;;;6.00;92.40;;;;;;5010275;28;20525;-76
2021/04/04 05:37:18;;;;;;;1.50;1.20;;;6.00;93.20;;;;;;4999814;28;21157;-77
2021/04/04 05:39:44;;;;;;;1.50;1.30;;;6.00;93.10;;;;;;5006996;28;21140;-76
2021/04/04 05:42:12;;;;;;;1.53;1.40;;;6.00;93.10;;;;;;4999361;28;20492;-75
2021/04/04 05:44:44;;;;;;;1.53;1.23;;;6.00;92.90;;;;;;5010533;28;20514;-75
2021/04/04 05:47:20;;;;;;;1.50;1.30;;;6.00;92.90;;;;;;4999718;28;20487;-76
2021/04/04 05:50:00;;;;;;;1.50;1.30;;;6.00;92.80;;;;;;5008456;28;20504;-75
2021/04/04 05:52:36;;;;;;;1.53;1.20;;;6.00;92.50;;;;;;4999071;28;20503;-76
2021/04/04 05:55:15;;;;;;;1.50;1.30;;;6.00;92.80;;;;;;5011542;28;20455;-76
2021/04/04 05:57:46;;;;;;;1.53;1.30;;;6.00;92.90;;;;;;4995891;28;20495;-77
2021/04/04 06:00:17;;;;;;;1.57;1.30;;;6.00;92.80;;;;;;5010633;28;20560;-75
2021/04/04 06:03:09;;;;;;;1.60;1.30;;;6.00;92.60;;;;;;5002521;28;21069;-76
2021/04/04 06:06:04;;;;;;;1.60;1.40;;;6.00;93.00;;;;;;5032604;22;20502;-75
2021/04/04 06:09:30;;;;;;;1.83;1.73;;;6.00;93.00;;;;;;5018391;28;20520;-75
2021/04/04 06:12:13;;;;;;;1.53;1.23;;;6.00;93.20;;;;;;4946858;28;21099;-76
2021/04/04 06:14:54;;;;;;;1.53;1.20;;;6.00;92.80;;;;;;4950863;28;20541;-76
2021/04/04 06:17:27;;;;;;;1.50;1.20;;;6.10;93.10;;;;;;5017339;28;20474;-76
2021/04/04 06:20:07;;;;;;;1.50;1.20;;;6.10;92.60;;;;;;5031497;28;20464;-76
2021/04/04 06:22:41;;;;;;;1.50;1.30;;;6.10;92.60;;;;;;5035986;28;20482;-77
2021/04/04 06:25:12;;;;;;;1.53;1.20;;;6.20;92.40;;;;;;5032442;28;20455;-75
2021/04/04 06:27:41;;;;;;;1.53;1.30;;;6.20;92.40;;;;;;5032689;28;20480;-76
2021/04/04 06:30:21;;;;;;;1.53;1.30;;;6.20;92.40;;;;;;5030528;28;20455;-76
2021/04/04 06:33:06;;;;;;;1.50;1.30;;;6.30;92.30;;;;;;5028968;28;20551;-76
2021/04/04 06:35:38;;;;;;;1.53;1.30;;;6.30;92.30;;;;;;5029575;28;20463;-77
2021/04/04 06:38:36;;;;;;;1.60;1.40;;;6.40;91.80;;;;;;5035700;28;20482;-76
2021/04/04 06:41:09;;;;;;;1.50;1.20;;;6.40;91.80;;;;;;5020060;28;20472;-76
2021/04/04 06:43:41;;;;;;;1.50;1.30;;;6.50;91.60;;;;;;5040147;28;20525;-76
2021/04/04 06:46:28;;;;;;;1.50;1.30;;;6.50;91.20;;;;;;5022387;28;20548;-76
2021/04/04 06:49:15;;;;;;;1.50;1.30;;;6.60;91.30;;;;;;5029365;28;20919;-77
2021/04/04 06:51:58;;;;;;;1.57;1.30;;;6.60;91.70;;;;;;5025485;28;20490;-77
2021/04/04 06:54:34;;;;;;;1.50;1.20;;;6.60;91.40;;;;;;5033926;28;20473;-76
2021/04/04 06:57:13;;;;;;;1.53;1.20;;;6.60;91.20;;;;;;5025531;28;20481;-76
2021/04/04 06:59:57;;;;;;;1.53;1.40;;;6.60;91.00;;;;;;5032561;28;20821;-77
2021/04/04 07:02:26;;;;;;;1.50;1.20;;;6.60;91.10;;;;;;5027956;28;20478;-77
2021/04/04 07:04:56;;;;;;;1.50;1.20;;;6.70;91.10;;;;;;5032887;28;20513;-76
2021/04/04 07:07:56;;;;;;;1.57;1.30;;;6.70;91.10;;;;;;5025286;28;20479;-76
2021/04/04 07:10:39;;;;;;;1.50;1.20;;;6.70;91.20;;;;;;5033206;28;20897;-76
2021/04/04 07:13:33;;;;;;;1.50;1.30;;;6.80;91.00;;;;;;5035532;28;20462;-77
2021/04/04 07:16:15;;;;;;;1.50;1.20;;;6.90;90.40;;;;;;5014396;28;20838;-77
2021/04/04 07:19:15;;;;;;;1.50;1.20;;;6.90;89.90;;;;;;5039524;28;20486;-76
2021/04/04 07:21:58;;;;;;;1.57;1.20;;;6.90;89.90;;;;;;5025868;28;20490;-76
2021/04/04 07:24:36;;;;;;;1.50;1.20;;;6.90;89.60;;;;;;5030954;28;20463;-76
2021/04/04 07:27:09;;;;;;;1.60;1.30;;;7.00;89.30;;;;;;5026548;28;20470;-77
2021/04/04 07:30:03;;;;;;;1.53;1.20;;;7.00;89.30;;;;;;5033342;28;20463;-77
2021/04/04 07:32:41;;;;;;;1.53;1.20;;;7.00;89.40;;;;;;5025371;28;20470;-77
2021/04/04 07:35:11;;;;;;;1.50;1.20;;;7.00;89.40;;;;;;5029566;28;20455;-76
2021/04/04 07:37:46;;;;;;;1.50;1.20;;;7.00;89.30;;;;;;5032211;28;21004;-76
2021/04/04 07:40:16;;;;;;;1.50;1.20;;;7.00;88.90;;;;;;5029032;28;20451;-76
2021/04/04 07:42:58;;;;;;;1.50;1.20;;;7.10;89.10;;;;;;5028516;28;20474;-77
2021/04/04 07:45:31;;;;;;;1.50;1.20;;;7.10;88.80;;;;;;5025959;28;20588;-76
2021/04/04 07:48:10;;;;;;;1.50;1.20;;;7.10;88.40;;;;;;5029571;28;20529;-76
2021/04/04 07:50:49;;;;;;;1.50;1.27;;;7.10;88.00;;;;;;5027553;28;20471;-77
2021/04/04 07:53:22;;;;;;;1.50;1.30;;;7.10;88.10;;;;;;5018440;28;20470;-76
2021/04/04 07:55:58;;;;;;;1.53;1.30;;;7.10;87.50;;;;;;5019146;28;20459;-76
2021/04/04 07:58:31;;;;;;;1.50;1.30;;;7.10;87.40;;;;;;5043422;28;20486;-77
2021/04/04 08:01:02;;;;;;;1.50;1.20;;;7.10;87.20;;;;;;5023450;28;20470;-76
2021/04/04 08:03:37;;;;;;;1.50;1.20;;;7.10;87.70;;;;;;5035481;28;20574;-77
2021/04/04 08:06:08;;;;;;;1.53;1.20;;;7.20;87.30;;;;;;5023538;28;20471;-76
2021/04/04 08:08:40;;;;;;;1.50;1.30;;;7.20;87.10;;;;;;5041816;28;20494;-76
2021/04/04 08:11:20;;;;;;;1.50;1.20;;;7.20;86.70;;;;;;5022045;28;21267;-77
2021/04/04 08:13:56;;;;;;;1.53;1.30;;;7.20;86.90;;;;;;5041920;28;20459;-77
2021/04/04 08:16:28;;;;;;;1.50;1.20;;;7.20;86.70;;;;;;5022206;28;20481;-76
2021/04/04 08:18:55;;;;;;;1.57;1.30;;;7.20;86.80;;;;;;5021124;28;20495;-77
2021/04/04 08:21:25;;;;;;;1.50;1.20;;;7.20;86.70;;;;;;5023050;28;20540;-77
2021/04/04 08:23:56;;;;;;;1.50;1.20;;;7.30;86.80;;;;;;5041600;28;20463;-77
2021/04/04 08:26:26;;;;;;;1.50;1.20;;;7.30;86.60;;;;;;5020970;28;20569;-76
2021/04/04 08:29:00;;;;;;;1.50;1.20;;;7.30;86.30;;;;;;5037883;28;20490;-76
2021/04/04 08:31:30;;;;;;;1.50;1.30;;;7.40;86.40;;;;;;5022968;28;21016;-76
2021/04/04 08:34:03;;;;;;;1.50;1.20;;;7.40;86.50;;;;;;5035316;28;20467;-76
2021/04/04 08:36:32;;;;;;;1.50;1.20;;;7.40;86.40;;;;;;5021997;28;21018;-76
2021/04/04 08:39:01;;;;;;;1.50;1.20;;;7.40;86.50;;;;;;5039221;28;20889;-75
2021/04/04 08:41:31;;;;;;;2.67;2.47;;;7.50;86.40;;;;;;5018836;28;20500;-76
2021/04/04 08:44:00;;;;;;;1.50;1.20;;;7.50;86.50;;;;;;5034927;28;20460;-76
2021/04/04 08:46:35;;;;;;;1.57;1.30;;;7.40;86.50;;;;;;5026334;28;20481;-76
2021/04/04 08:49:03;;;;;;;1.50;1.13;;;7.40;86.70;;;;;;5038688;28;20479;-76
2021/04/04 08:51:36;;;;;;;1.53;1.20;;;7.40;86.80;;;;;;5023916;28;20498;-76
2021/04/04 08:54:12;;;;;;;1.50;1.20;;;7.30;87.00;;;;;;5037152;28;20876;-76
2021/04/04 08:56:41;;;;;;;1.60;1.30;;;7.40;86.90;;;;;;5027304;28;20478;-76
2021/04/04 08:59:08;;;;;;;1.50;1.20;;;7.30;86.70;;;;;;5038584;28;21030;-76
2021/04/04 09:01:37;;;;;;;1.53;1.23;;;7.30;86.80;;;;;;5022615;28;20483;-76
2021/04/04 09:04:08;;;;;;;1.50;1.20;;;7.30;87.20;;;;;;5037511;28;21037;-75
2021/04/04 09:06:37;;;;;;;1.50;1.10;;;7.20;87.00;;;;;;5025813;28;20578;-76
2021/04/04 09:09:15;;;;;;;1.57;1.27;;;7.20;87.10;;;;;;5033933;28;20487;-76
2021/04/04 09:11:42;;;;;;;1.50;1.20;;;7.20;87.30;;;;;;5022642;28;20490;-75
2021/04/04 09:14:09;;;;;;;1.50;1.10;;;7.30;87.20;;;;;;5036269;28;20470;-76
2021/04/04 09:16:35;;;;;;;1.50;1.20;;;7.30;87.20;;;;;;5017800;28;21440;-76
2021/04/04 09:19:02;;;;;;;1.50;1.20;;;7.40;87.30;;;;;;5029686;28;20487;-76
2021/04/04 09:21:37;;;;;;;1.60;1.30;;;7.40;87.00;;;;;;5021605;28;20487;-76
2021/04/04 09:24:06;;;;;;;1.50;1.20;;;7.40;87.00;;;;;;5037171;28;20489;-78
2021/04/04 09:26:35;;;;;;;1.50;1.20;;;7.50;87.00;;;;;;5026078;28;20486;-77
2021/04/04 09:29:03;;;;;;;1.50;1.20;;;7.50;87.30;;;;;;5033131;28;20482;-76
2021/04/04 09:31:32;;;;;;;1.50;1.20;;;7.60;87.00;;;;;;5025183;28;20482;-77
2021/04/04 09:34:02;;;;;;;1.53;1.20;;;7.60;87.00;;;;;;5036881;28;20475;-78
2021/04/04 09:36:43;;;;;;;1.50;1.20;;;7.60;87.00;;;;;;5023584;28;20529;-76
2021/04/04 09:39:12;;;;;;;1.50;1.20;;;7.60;87.20;;;;;;5037048;28;20479;-76
2021/04/04 09:41:39;;;;;;;1.50;1.20;;;7.70;87.10;;;;;;5025608;28;21241;-77
2021/04/04 09:44:08;;;;;;;1.50;1.20;;;7.70;87.10;;;;;;5037694;28;20459;-80
2021/04/04 09:46:49;;;;;;;1.50;1.20;;;7.70;86.50;;;;;;5028587;28;20478;-76
2021/04/04 09:49:37;;;;;;;1.50;1.20;;;7.70;86.60;;;;;;5034971;28;20985;-76
2021/04/04 09:52:29;;;;;;;1.50;1.20;;;7.60;86.90;;;;;;5032750;28;20482;-77
2021/04/04 09:55:02;;;;;;;1.50;1.10;;;7.60;87.60;;;;;;5033650;28;20463;-76
2021/04/04 09:57:39;;;;;;;1.50;1.10;;;7.80;87.40;;;;;;5029349;28;20498;-77
2021/04/04 10:00:22;;;;;;;1.50;1.20;;;7.90;86.90;;;;;;5033428;28;20546;-76
2021/04/04 10:02:51;;;;;;;1.50;1.20;;;7.90;86.50;;;;;;5036541;28;20516;-77
2021/04/04 10:05:33;;;;;;;1.60;1.30;;;7.90;86.70;;;;;;5018474;28;20479;-77
2021/04/04 10:08:10;;;;;;;1.50;1.10;;;8.00;86.70;;;;;;5022613;28;20478;-77
2021/04/04 10:10:39;;;;;;;1.50;1.20;;;8.10;86.10;;;;;;5026231;28;20942;-77
2021/04/04 10:13:06;;;;;;;1.50;1.20;;;8.20;86.10;;;;;;5035371;28;20486;-76
2021/04/04 10:15:43;;;;;;;1.50;1.17;;;8.20;85.60;;;;;;5028338;28;20473;-76
2021/04/04 10:18:10;;;;;;;1.50;1.17;;;8.20;85.40;;;;;;5030239;28;20475;-76
2021/04/04 10:20:39;;;;;;;1.50;1.10;;;8.30;85.40;;;;;;5026912;28;20474;-77
2021/04/04 10:23:07;;;;;;;1.57;1.27;;;8.30;85.90;;;;;;5030696;28;20512;-76
2021/04/04 10:25:33;;;;;;;1.50;1.10;;;8.30;85.60;;;;;;5028430;28;20460;-76
2021/04/04 10:28:03;;;;;;;1.50;1.10;;;8.40;85.40;;;;;;5029927;28;20474;-76
2021/04/04 10:30:31;;;;;;;1.50;1.20;;;8.40;85.30;;;;;;5024094;28;20471;-77
2021/04/04 10:33:17;;;;;;;1.50;1.10;;;8.50;85.10;;;;;;5036460;28;20528;-77
2021/04/04 10:35:43;;;;;;;1.50;1.10;;;8.60;85.10;;;;;;5030730;28;20545;-77
2021/04/04 10:38:12;;;;;;;1.50;1.10;;;8.70;84.90;;;;;;5031411;28;21161;-76
2021/04/04 10:40:47;;;;;;;1.50;1.10;;;8.70;84.90;;;;;;5029117;28;20556;-77
2021/04/04 10:43:16;;;;;;;1.50;1.10;;;8.70;85.00;;;;;;5017716;28;20482;-76
2021/04/04 10:46:10;;;;;;;1.50;1.13;;;8.70;84.40;;;;;;5031471;28;20534;-76
2021/04/04 10:48:38;;;;;;;1.50;1.20;;;8.70;84.20;;;;;;4975618;28;20491;-77
2021/04/04 10:51:06;;;;;;;1.53;1.20;;;8.60;84.30;;;;;;5020963;28;20841;-76
2021/04/04 10:53:33;;;;;;;1.50;1.20;;;8.50;84.80;;;;;;5042445;28;20454;-77
2021/04/04 10:56:00;;;;;;;1.50;1.10;;;8.50;85.10;;;;;;5024049;28;20461;-77
2021/04/04 10:58:28;;;;;;;1.50;1.10;;;8.50;84.60;;;;;;5041844;28;20505;-77
2021/04/04 11:00:56;;;;;;;1.50;1.20;;;8.50;85.00;;;;;;5023307;28;20460;-77
2021/04/04 11:03:22;;;;;;;1.50;1.00;;;8.50;84.90;;;;;;5042969;28;20550;-77
2021/04/04 11:05:49;;;;;;;1.50;1.10;;;8.60;84.90;;;;;;5017672;28;20912;-76
2021/04/04 11:08:16;;;;;;;1.50;1.27;;;8.60;85.00;;;;;;5042161;28;20502;-76
2021/04/04 11:10:42;;;;;;;1.50;1.10;;;8.60;85.00;;;;;;5030765;28;21186;-77
2021/04/04 11:13:08;;;;;;;1.50;1.20;;;8.60;85.20;;;;;;5034493;28;20478;-77
2021/04/04 11:15:40;;;;;;;1.53;1.20;;;8.70;85.80;;;;;;5029814;28;20474;-76
2021/04/04 11:18:12;;;;;;;1.50;1.10;;;8.70;85.20;;;;;;5032579;28;20474;-77
2021/04/04 11:20:40;;;;;;;1.50;1.20;;;8.80;85.00;;;;;;5029525;28;20459;-77
2021/04/04 11:23:08;;;;;;;1.50;1.10;;;8.80;85.30;;;;;;5027914;28;20608;-76
2021/04/04 11:25:34;;;;;;;1.50;1.10;;;8.90;84.60;;;;;;5028667;28;20466;-76
2021/04/04 11:28:14;;;;;;;1.50;1.10;;;9.00;84.40;;;;;;5033018;28;20474;-76
2021/04/04 11:30:42;;;;;;;1.50;1.10;;;9.00;85.00;;;;;;5029372;28;20466;-77
2021/04/04 11:33:30;;;;;;;1.50;1.10;;;9.10;84.30;;;;;;5026417;28;20476;-77
2021/04/04 11:35:58;;;;;;;1.50;1.10;;;9.20;84.20;;;;;;5019206;28;20679;-77
2021/04/04 11:38:25;;;;;;;1.50;1.10;;;9.20;83.90;;;;;;5035434;28;21140;-77
2021/04/04 11:41:13;;;;;;;1.50;1.10;;;9.20;83.70;;;;;;5016579;28;20469;-77
2021/04/04 11:43:40;;;;;;;1.50;1.10;;;9.20;83.40;;;;;;5036890;28;20486;-77
2021/04/04 11:46:40;;;;;;;1.50;1.10;;;9.20;83.50;;;;;;5010160;28;20477;-76
2021/04/04 11:49:34;;;;;;;1.50;1.17;;;9.30;83.50;;;;;;5023577;28;20484;-76
2021/04/04 11:52:21;;;;;;;1.50;1.10;;;9.30;83.60;;;;;;5027700;28;20886;-76
2021/04/04 11:54:51;;;;;;;1.50;1.10;;;9.40;83.70;;;;;;5033329;28;20463;-77
2021/04/04 11:57:20;;;;;;;1.50;1.10;;;9.40;82.90;;;;;;5023910;28;20512;-76
2021/04/04 11:59:48;;;;;;;1.50;1.10;;;9.40;83.30;;;;;;5027801;28;20970;-76
2021/04/04 12:02:17;;;;;;;1.50;1.10;;;9.40;83.20;;;;;;5031909;28;20478;-77
2021/04/04 12:04:46;;;;;;;1.50;1.20;;;9.40;83.20;;;;;;5028085;28;20483;-76
2021/04/04 12:07:13;;;;;;;1.50;1.10;;;9.40;83.40;;;;;;5020125;28;20573;-76
2021/04/04 12:09:42;;;;;;;1.53;1.20;;;9.50;83.40;;;;;;5013216;28;21045;-77
2021/04/04 12:12:11;;;;;;;1.50;1.10;;;9.60;83.50;;;;;;5014044;28;20541;-77
2021/04/04 12:14:47;;;;;;;1.50;1.20;;;9.50;83.50;;;;;;5019348;28;20529;-77
2021/04/04 12:17:15;;;;;;;1.50;1.10;;;9.50;83.10;;;;;;5022053;28;20515;-77
2021/04/04 12:19:43;;;;;;;1.50;1.10;;;9.50;83.20;;;;;;5028933;28;20463;-77
2021/04/04 12:22:10;;;;;;;1.50;1.10;;;9.40;83.10;;;;;;5026233;28;20486;-77
2021/04/04 12:24:44;;;;;;;1.50;1.03;;;9.40;83.60;;;;;;5017969;28;20479;-77
2021/04/04 12:27:12;;;;;;;1.50;1.10;;;9.40;83.80;;;;;;5021850;28;21142;-76
2021/04/04 12:29:43;;;;;;;1.50;1.10;;;9.40;83.60;;;;;;5030477;28;20501;-76
2021/04/04 12:32:09;;;;;;;1.50;1.10;;;9.50;83.90;;;;;;5027064;28;20482;-76
2021/04/04 12:34:41;;;;;;;1.50;1.00;;;9.50;83.30;;;;;;5028042;28;20479;-76
2021/04/04 12:37:11;;;;;;;1.50;1.00;;;9.50;83.30;;;;;;5024159;28;20557;-76
2021/04/04 12:39:38;;;;;;;1.50;1.00;;;9.60;82.80;;;;;;5031337;28;20512;-77
2021/04/04 12:42:08;;;;;;;1.50;1.00;;;9.70;82.40;;;;;;5030708;28;20478;-76
2021/04/04 12:44:36;;;;;;;1.50;1.10;;;9.70;82.00;;;;;;5030147;28;20514;-76
2021/04/04 12:47:06;;;;;;;1.50;1.10;;;9.70;82.50;;;;;;5028864;28;20490;-76
2021/04/04 12:49:32;;;;;;;1.50;1.10;;;9.90;82.10;;;;;;5033940;28;20459;-76
2021/04/04 12:52:01;;;;;;;1.50;1.00;;;10.00;81.50;;;;;;5022989;28;20855;-77
2021/04/04 12:54:28;;;;;;;1.50;1.10;;;10.10;81.20;;;;;;5030824;28;20467;-76
2021/04/04 12:56:54;;;;;;;1.50;1.10;;;10.30;81.00;;;;;;5029524;28;20489;-77
2021/04/04 12:59:21;;;;;;;1.50;1.10;;;10.30;80.90;;;;;;5035527;28;20877;-77
2021/04/04 13:01:48;;;;;;;1.50;1.10;;;10.40;80.30;;;;;;5022495;28;20497;-77
2021/04/04 13:04:15;;;;;;;1.50;1.00;;;10.50;80.30;;;;;;5036237;28;20462;-77
2021/04/04 13:06:42;;;;;;;1.50;1.10;;;10.50;80.10;;;;;;5025894;28;20993;-77
2021/04/04 13:09:12;;;;;;;1.50;1.07;;;10.60;79.90;;;;;;5031581;28;20661;-77
2021/04/04 13:11:39;;;;;;;1.50;1.00;;;10.70;80.30;;;;;;5027058;28;20483;-77
2021/04/04 13:14:06;;;;;;;1.50;1.10;;;10.70;80.00;;;;;;5037275;28;20503;-77
2021/04/04 13:16:32;;;;;;;1.50;1.10;;;10.70;79.60;;;;;;5023764;28;20556;-77
2021/04/04 13:18:59;;;;;;;1.50;1.00;;;10.70;79.20;;;;;;5037770;28;20479;-77